map of SBN home
SBN - Airport
Location
City:  South Bend, Indiana, United States
Name:South Bend International Airport
ICAO:KSBN
IATA:SBN
FAA LID:SBN

Details
Type:Airport (Part 139 Class I)
Use:Public/Civil
Latitude:4142'30"N (41.708222)
Longitude:8619'02"W (-86.317332)
Datum:WGS 1984
Elevation:798 ft (243 m)
Variation:4.96W (WMM2015 magnetic declination)
-0.05 annual change
Runways:3
Longest:8412 × 150 ft (2564 × 45.5 m), paved

Time
Time Zone:UTC-5 (DST-4)
Local Time:

Weather
METAR:KSBN 220454Z 07005KT 10SM OVC043 18/14 A2979 RMK AO2 SLP085 T01780144 402110172
TAF:KSBN 220116Z 2201/2224 04012KT P6SM OVC050
FM221100 07010KT P6SM VCSH OVC015
FM221400 07010KT P6SM VCSH OVC008

Related Locations
Nearby:
Farthest:YAUG: 11168 mi / 17973 km
Augusta [Augusta Airport], WA, AU

Find:

   beyond  
but within

Other Information
Maps:
Delays:
NOTAMs:
Links:
Sources:

  
  • flag of United States
  • flag of Indiana
  

Airport Diagram

Airport diagram for SBN

Airport diagram PDF

Sectional Chart

Flight Planning
at skyvector.com

Satellite Image

Google Maps Satellite view

 

Copyright © 2004-2018 Karl L. Swartz. All rights reserved.
The Great Circle Mapper name and logo are trademarks of the Great Circle Mapper.
All other trademarks mentioned herein belong to their respective owners.
Please see credits for attibutions and further copyright information.

  Follow gcmap on Facebook Follow gcmap on Twitter Follow gcmap on Google+ GCmap on LinkedIn

hCard Microformat

Geo Microformat